Time;durP1;ratioP1;P1;durP2;ratioP2;P2;SDS_P1;SDS_P2;PMS_P1;PMS_P2;Temp;Humidity;BMP_temperature;BMP_pressure;BME280_temperature;BME280_humidity;BME280_pressure;Samples;Min_cycle;Max_cycle;Signal;HPM_P1;HPM_P2
2020/12/14 00:02:25;;;;;;;99.17;57.17;;;6.00;85.30;;;;;;4921953;28;87675;-76
2020/12/14 00:04:52;;;;;;;102.37;56.83;;;6.00;85.50;;;;;;4922738;28;86998;-76
2020/12/14 00:07:19;;;;;;;93.43;51.67;;;6.00;85.50;;;;;;4922397;28;86367;-76
2020/12/14 00:09:46;;;;;;;95.63;56.13;;;6.10;85.40;;;;;;4922519;28;91466;-76
2020/12/14 00:12:12;;;;;;;102.77;54.63;;;6.10;85.10;;;;;;4937502;28;91222;-76
2020/12/14 00:14:38;;;;;;;95.93;55.90;;;6.20;84.50;;;;;;4922255;28;88031;-76
2020/12/14 00:17:04;;;;;;;97.97;57.53;;;6.30;84.20;;;;;;4927248;28;86984;-76
2020/12/14 00:19:30;;;;;;;104.50;56.03;;;6.20;84.10;;;;;;4944702;28;87271;-76
2020/12/14 00:21:56;;;;;;;97.87;53.43;;;6.30;84.10;;;;;;4945316;28;87429;-76
2020/12/14 00:24:22;;;;;;;98.07;55.00;;;6.20;84.10;;;;;;4949990;28;87188;-75
2020/12/14 00:26:51;;;;;;;98.20;54.70;;;6.30;84.10;;;;;;4948462;28;87751;-76
2020/12/14 00:29:18;;;;;;;102.77;55.63;;;6.30;83.90;;;;;;4930937;28;88998;-76
2020/12/14 00:31:43;;;;;;;98.70;54.37;;;6.30;83.60;;;;;;4942860;28;87511;-76
2020/12/14 00:34:09;;;;;;;106.07;57.73;;;6.30;83.90;;;;;;4945254;28;87155;-76
2020/12/14 00:36:35;;;;;;;102.37;55.47;;;6.30;83.60;;;;;;4961018;28;88204;-76
2020/12/14 00:39:02;;;;;;;99.73;56.77;;;6.30;83.60;;;;;;4961157;28;89254;-76
2020/12/14 00:41:27;;;;;;;95.47;56.80;;;6.30;83.60;;;;;;4959994;28;89406;-76
2020/12/14 00:43:53;;;;;;;104.93;58.10;;;6.20;84.10;;;;;;4961260;28;87202;-75
2020/12/14 00:46:19;;;;;;;101.33;56.33;;;6.20;84.10;;;;;;4944045;28;87130;-75
2020/12/14 00:48:45;;;;;;;93.17;54.07;;;6.30;84.00;;;;;;4944622;28;91342;-76
2020/12/14 00:51:12;;;;;;;98.93;56.47;;;6.20;84.20;;;;;;4943804;28;90844;-76
2020/12/14 00:53:39;;;;;;;95.07;54.63;;;6.30;83.90;;;;;;4952645;28;87124;-76
2020/12/14 00:56:06;;;;;;;98.73;55.50;;;6.30;83.80;;;;;;4926037;28;86409;-76
2020/12/14 00:58:33;;;;;;;92.03;54.60;;;6.30;84.00;;;;;;4924696;28;91759;-76
2020/12/14 01:00:59;;;;;;;86.83;53.13;;;6.30;83.90;;;;;;4925240;28;88461;-77
2020/12/14 01:03:25;;;;;;;87.83;52.33;;;6.40;83.80;;;;;;4941932;28;88371;-76
2020/12/14 01:05:52;;;;;;;91.87;53.87;;;6.40;83.60;;;;;;4925390;28;87459;-76
2020/12/14 01:08:21;;;;;;;84.80;51.20;;;6.50;83.70;;;;;;4952542;28;87601;-76
2020/12/14 01:10:48;;;;;;;84.27;49.70;;;6.50;83.50;;;;;;4915203;28;90760;-76
2020/12/14 01:13:14;;;;;;;86.90;50.43;;;6.50;83.50;;;;;;4933058;28;86981;-76
2020/12/14 01:15:40;;;;;;;88.53;51.33;;;6.60;83.30;;;;;;4943196;28;86972;-76
2020/12/14 01:18:06;;;;;;;93.13;53.23;;;6.60;83.10;;;;;;4920773;28;90707;-76
2020/12/14 01:20:31;;;;;;;86.33;51.97;;;6.60;83.10;;;;;;4937140;28;88491;-76
2020/12/14 01:22:57;;;;;;;88.20;52.83;;;6.60;83.00;;;;;;4927133;28;87363;-76
2020/12/14 01:25:23;;;;;;;86.20;52.83;;;6.60;83.00;;;;;;4942036;28;87057;-76
2020/12/14 01:27:49;;;;;;;94.50;53.87;;;6.60;83.00;;;;;;4940949;28;89154;-76
2020/12/14 01:30:15;;;;;;;92.87;56.23;;;6.50;83.30;;;;;;4940370;28;88367;-76
2020/12/14 01:32:40;;;;;;;104.53;57.00;;;6.50;83.60;;;;;;4929856;28;87228;-76
2020/12/14 01:35:06;;;;;;;101.60;56.73;;;6.50;83.60;;;;;;4921852;28;87354;-76
2020/12/14 01:37:32;;;;;;;106.47;58.57;;;6.50;83.60;;;;;;4921012;28;91508;-76
2020/12/14 01:39:58;;;;;;;91.57;53.57;;;6.40;83.70;;;;;;4921727;28;91159;-76
2020/12/14 01:42:23;;;;;;;90.43;52.60;;;6.40;84.00;;;;;;4920882;28;87117;-76
2020/12/14 01:44:50;;;;;;;102.10;56.03;;;6.30;84.30;;;;;;4922215;28;87220;-76
2020/12/14 01:47:34;;;;;;;91.87;53.67;;;6.30;84.60;;;;;;4922245;28;88533;-76
2020/12/14 01:50:00;;;;;;;94.53;52.33;;;6.30;84.90;;;;;;4946220;28;91138;-76
2020/12/14 01:52:27;;;;;;;93.27;53.63;;;6.20;85.00;;;;;;4938544;28;88365;-76
2020/12/14 01:54:55;;;;;;;93.40;55.27;;;6.30;85.00;;;;;;4921783;28;88155;-76
2020/12/14 01:57:21;;;;;;;96.63;54.47;;;6.30;84.60;;;;;;4904678;28;91269;-76
2020/12/14 01:59:47;;;;;;;88.53;50.90;;;6.30;84.60;;;;;;4921383;28;91149;-76
2020/12/14 02:02:13;;;;;;;87.83;50.63;;;6.30;84.80;;;;;;4904608;28;87185;-76
2020/12/14 02:04:39;;;;;;;82.40;51.90;;;6.30;84.80;;;;;;4905467;28;88832;-76
2020/12/14 02:07:05;;;;;;;92.77;54.77;;;6.30;84.80;;;;;;4921575;28;90857;-75
2020/12/14 02:09:31;;;;;;;82.73;52.67;;;6.30;85.00;;;;;;4921539;28;91108;-76
2020/12/14 02:11:57;;;;;;;91.73;56.70;;;6.30;85.00;;;;;;4921519;28;87207;-76
2020/12/14 02:14:23;;;;;;;91.53;54.87;;;6.40;84.90;;;;;;4921201;28;87773;-76
2020/12/14 02:16:48;;;;;;;92.87;54.20;;;6.40;84.60;;;;;;4922689;28;92549;-76
2020/12/14 02:19:14;;;;;;;94.37;55.33;;;6.40;84.40;;;;;;4937202;28;89408;-76
2020/12/14 02:21:40;;;;;;;98.03;57.17;;;6.30;84.40;;;;;;4944182;28;87781;-76
2020/12/14 02:24:18;;;;;;;93.57;54.13;;;6.30;84.70;;;;;;4948888;28;87069;-76
2020/12/14 02:26:50;;;;;;;87.33;53.77;;;6.20;85.10;;;;;;4941719;28;87814;-76
2020/12/14 02:29:19;;;;;;;100.25;57.72;;;6.20;85.10;;;;;;4921935;28;91513;-76
2020/12/14 02:31:46;;;;;;;94.00;54.47;;;6.30;85.30;;;;;;4941379;28;86921;-76
2020/12/14 02:34:12;;;;;;;93.23;53.90;;;6.30;85.10;;;;;;4932410;28;86886;-76
2020/12/14 02:36:40;;;;;;;98.37;58.57;;;6.30;84.90;;;;;;4904377;28;89937;-76
2020/12/14 02:39:06;;;;;;;96.63;56.23;;;6.40;84.70;;;;;;4920667;28;87788;-76
2020/12/14 02:41:32;;;;;;;98.27;55.93;;;6.40;84.30;;;;;;4919367;28;88118;-76
2020/12/14 02:43:58;;;;;;;92.63;53.80;;;6.40;84.10;;;;;;4921057;28;88610;-76
2020/12/14 02:46:24;;;;;;;89.47;53.87;;;6.40;84.10;;;;;;4921941;28;88165;-76
2020/12/14 02:48:50;;;;;;;95.30;56.73;;;6.40;84.40;;;;;;4922169;28;87582;-76
2020/12/14 02:51:19;;;;;;;89.63;53.50;;;6.40;84.50;;;;;;4920185;28;87110;-77
2020/12/14 02:53:48;;;;;;;92.07;55.33;;;6.30;84.70;;;;;;4921508;28;87112;-76
2020/12/14 02:56:16;;;;;;;86.43;51.50;;;6.30;84.80;;;;;;4920230;28;91732;-76
2020/12/14 02:58:43;;;;;;;93.50;52.60;;;6.30;84.80;;;;;;4921644;28;87141;-76
2020/12/14 03:01:09;;;;;;;92.00;52.70;;;6.40;84.80;;;;;;4920410;28;87413;-76
2020/12/14 03:03:35;;;;;;;95.60;54.27;;;6.30;84.90;;;;;;4904177;28;88112;-76
2020/12/14 03:06:01;;;;;;;85.57;52.47;;;6.20;85.30;;;;;;4920251;28;92251;-75
2020/12/14 03:08:27;;;;;;;88.93;51.37;;;6.20;85.50;;;;;;4925375;28;91336;-76
2020/12/14 03:10:53;;;;;;;99.80;55.67;;;6.30;85.30;;;;;;4937875;28;86977;-76
2020/12/14 03:13:18;;;;;;;92.10;54.80;;;6.30;85.30;;;;;;4919772;28;87119;-77
2020/12/14 03:15:45;;;;;;;89.73;53.33;;;6.30;85.20;;;;;;4921845;28;87998;-76
2020/12/14 03:18:10;;;;;;;95.47;55.83;;;6.30;85.30;;;;;;4932463;28;91505;-76
2020/12/14 03:20:36;;;;;;;92.17;55.50;;;6.30;85.10;;;;;;4923667;28;87067;-76
2020/12/14 03:23:02;;;;;;;85.07;52.03;;;6.40;85.00;;;;;;4916521;28;87573;-76
2020/12/14 03:25:28;;;;;;;95.10;52.50;;;6.40;84.90;;;;;;4939462;28;90912;-76
2020/12/14 03:27:54;;;;;;;90.57;53.90;;;6.50;84.30;;;;;;4940681;28;90939;-76
2020/12/14 03:30:19;;;;;;;84.97;51.40;;;6.50;84.30;;;;;;4920974;28;87999;-76
2020/12/14 03:32:45;;;;;;;89.57;50.97;;;6.50;84.40;;;;;;4919962;28;88095;-76
2020/12/14 03:35:11;;;;;;;101.60;54.90;;;6.40;84.40;;;;;;4920315;28;91532;-76
2020/12/14 03:37:37;;;;;;;94.50;55.70;;;6.30;84.80;;;;;;4920128;28;87290;-76
2020/12/14 03:40:04;;;;;;;99.83;55.17;;;6.20;85.30;;;;;;4920398;28;87107;-76
2020/12/14 03:42:30;;;;;;;97.50;55.47;;;6.20;85.80;;;;;;4928850;28;87054;-76
2020/12/14 03:44:56;;;;;;;95.00;55.63;;;6.20;85.80;;;;;;4940731;28;91102;-76
2020/12/14 03:47:22;;;;;;;96.40;56.60;;;6.20;85.70;;;;;;4942177;28;90774;-76
2020/12/14 03:49:48;;;;;;;86.23;50.83;;;6.30;85.60;;;;;;4939836;28;87369;-76
2020/12/14 03:52:14;;;;;;;89.87;52.93;;;6.20;85.50;;;;;;4939793;28;87086;-76
2020/12/14 03:54:39;;;;;;;96.37;54.83;;;6.20;85.70;;;;;;4939043;28;92877;-75
2020/12/14 03:57:05;;;;;;;95.20;53.27;;;6.20;85.60;;;;;;4929761;28;88947;-76
2020/12/14 03:59:31;;;;;;;99.23;53.93;;;6.30;85.20;;;;;;4937772;28;87375;-76
2020/12/14 04:01:57;;;;;;;98.30;56.67;;;6.30;85.20;;;;;;4919015;28;88205;-76
2020/12/14 04:04:23;;;;;;;99.83;55.27;;;6.30;85.10;;;;;;4918888;28;88097;-76
2020/12/14 04:06:49;;;;;;;96.80;56.60;;;6.30;85.20;;;;;;4921003;28;88382;-76
2020/12/14 04:09:15;;;;;;;96.17;56.13;;;6.30;85.30;;;;;;4935696;28;86991;-76
2020/12/14 04:11:40;;;;;;;95.83;55.93;;;6.40;85.00;;;;;;4919212;28;86249;-76
2020/12/14 04:14:06;;;;;;;93.67;52.50;;;6.40;84.80;;;;;;4919258;28;91468;-76
2020/12/14 04:16:32;;;;;;;91.53;53.50;;;6.40;84.60;;;;;;4918519;28;91235;-76
2020/12/14 04:18:58;;;;;;;91.83;52.00;;;6.50;84.50;;;;;;4938911;28;87947;-76
2020/12/14 04:21:23;;;;;;;93.00;54.40;;;6.50;84.30;;;;;;4913639;28;88379;-76
2020/12/14 04:23:49;;;;;;;91.37;53.83;;;6.50;84.20;;;;;;4921453;28;90970;-75
2020/12/14 04:26:15;;;;;;;92.83;54.13;;;6.50;84.30;;;;;;4930517;28;91137;-75
2020/12/14 04:28:41;;;;;;;95.43;54.00;;;6.40;84.50;;;;;;4937930;28;86939;-76
2020/12/14 04:31:07;;;;;;;98.37;54.20;;;6.40;84.80;;;;;;4905906;28;87593;-76
2020/12/14 04:33:33;;;;;;;88.27;53.93;;;6.40;85.10;;;;;;4921465;28;90984;-76
2020/12/14 04:35:59;;;;;;;95.27;54.60;;;6.30;85.30;;;;;;4906691;28;91231;-75
2020/12/14 04:38:25;;;;;;;86.70;50.57;;;6.30;85.50;;;;;;4938167;28;87039;-76
2020/12/14 04:40:54;;;;;;;84.77;50.70;;;6.40;85.40;;;;;;4948416;28;87076;-76
2020/12/14 04:43:21;;;;;;;90.20;52.53;;;6.40;85.20;;;;;;4905107;28;92384;-76
2020/12/14 04:45:49;;;;;;;87.83;51.70;;;6.40;85.00;;;;;;4939715;28;89321;-76
2020/12/14 04:48:15;;;;;;;84.27;50.87;;;6.50;84.80;;;;;;4922291;28;87789;-76
2020/12/14 04:50:42;;;;;;;88.00;52.40;;;6.40;84.50;;;;;;4904960;28;88157;-76
2020/12/14 04:53:08;;;;;;;83.17;50.43;;;6.50;84.60;;;;;;4921524;28;91739;-75
2020/12/14 04:55:36;;;;;;;81.87;49.53;;;6.40;84.80;;;;;;4921698;28;86970;-76
2020/12/14 04:58:04;;;;;;;86.87;52.17;;;6.30;85.10;;;;;;4927484;28;87108;-76
2020/12/14 05:00:30;;;;;;;82.93;48.33;;;6.30;85.80;;;;;;4945197;28;87999;-76
2020/12/14 05:02:56;;;;;;;85.10;49.93;;;6.20;85.90;;;;;;4924048;28;87685;-76
2020/12/14 05:05:24;;;;;;;83.50;48.87;;;6.20;86.20;;;;;;4924631;28;91496;-76
2020/12/14 05:07:49;;;;;;;86.17;48.90;;;6.10;86.50;;;;;;4925163;28;87984;-76
2020/12/14 05:10:21;;;;;;;90.13;47.73;;;6.10;86.60;;;;;;4909236;28;87948;-76
2020/12/14 05:12:47;;;;;;;79.95;46.85;;;6.10;86.80;;;;;;4942677;28;88097;-76
2020/12/14 05:15:20;;;;;;;74.43;45.70;;;6.00;87.40;;;;;;4925474;28;87581;-76
2020/12/14 05:17:47;;;;;;;86.30;45.93;;;5.80;87.90;;;;;;4933826;28;86905;-76
2020/12/14 05:20:14;;;;;;;72.23;45.03;;;5.80;88.40;;;;;;4961907;28;87899;-76
2020/12/14 05:22:54;;;;;;;76.53;47.63;;;5.80;88.50;;;;;;4959761;28;90526;-76
2020/12/14 05:25:20;;;;;;;74.20;44.27;;;5.70;88.60;;;;;;4946864;28;91034;-76
2020/12/14 05:27:46;;;;;;;78.20;45.97;;;5.70;88.60;;;;;;4934146;28;87085;-76
2020/12/14 05:30:15;;;;;;;89.63;49.40;;;5.70;88.70;;;;;;4925679;28;87436;-76
2020/12/14 05:32:41;;;;;;;74.67;46.77;;;5.60;88.80;;;;;;4908604;28;92179;-76
2020/12/14 05:35:11;;;;;;;76.30;45.30;;;5.60;88.80;;;;;;4926257;28;88900;-76
2020/12/14 05:37:37;;;;;;;79.47;46.47;;;5.60;88.80;;;;;;4941697;28;87467;-76
2020/12/14 05:40:10;;;;;;;83.17;48.70;;;5.50;88.90;;;;;;4910183;28;87778;-76
2020/12/14 05:42:43;;;;;;;79.63;47.33;;;5.50;89.30;;;;;;4926694;28;91451;-75
2020/12/14 05:45:12;;;;;;;82.87;48.33;;;5.50;89.30;;;;;;4932068;28;87887;-76
2020/12/14 05:47:42;;;;;;;74.90;46.70;;;5.50;89.20;;;;;;4965321;28;87935;-75
2020/12/14 05:50:09;;;;;;;73.87;45.93;;;5.40;88.90;;;;;;4936805;28;87971;-76
2020/12/14 05:52:44;;;;;;;82.60;46.57;;;5.40;88.50;;;;;;4963602;28;88625;-76
2020/12/14 05:55:10;;;;;;;80.77;47.93;;;5.40;88.10;;;;;;4961135;28;90149;-75
2020/12/14 05:57:37;;;;;;;84.00;50.03;;;5.50;87.80;;;;;;4959217;28;88404;-76
2020/12/14 06:00:10;;;;;;;81.00;48.33;;;5.40;88.20;;;;;;4944038;28;87698;-76
2020/12/14 06:02:37;;;;;;;85.60;52.33;;;5.40;88.70;;;;;;4957404;28;88030;-76
2020/12/14 06:05:05;;;;;;;80.57;46.93;;;5.40;88.70;;;;;;4942061;28;87423;-76
2020/12/14 06:07:32;;;;;;;85.23;49.93;;;5.40;88.70;;;;;;4923856;28;87297;-76
2020/12/14 06:10:09;;;;;;;83.37;46.97;;;5.40;88.50;;;;;;4924714;28;87328;-76
2020/12/14 06:12:37;;;;;;;88.90;50.33;;;5.40;88.50;;;;;;4941970;28;87999;-76
2020/12/14 06:15:12;;;;;;;87.67;50.57;;;5.40;88.70;;;;;;4942024;28;88405;-76
2020/12/14 06:17:39;;;;;;;99.20;56.17;;;5.40;88.70;;;;;;4931032;28;87308;-76
2020/12/14 06:20:18;;;;;;;87.57;51.43;;;5.40;89.20;;;;;;4943468;28;87102;-76
2020/12/14 06:23:06;;;;;;;94.23;53.80;;;5.40;89.10;;;;;;4951943;28;89630;-76
2020/12/14 06:25:33;;;;;;;97.80;57.03;;;5.40;89.00;;;;;;4943938;28;89100;-76
2020/12/14 06:28:27;;;;;;;87.67;52.50;;;5.40;89.30;;;;;;4931569;28;87695;-76
2020/12/14 06:30:54;;;;;;;90.87;53.40;;;5.40;88.90;;;;;;4923716;28;87783;-76
2020/12/14 06:33:38;;;;;;;96.63;55.43;;;5.40;88.80;;;;;;4938380;28;92092;-76
2020/12/14 06:36:17;;;;;;;103.37;57.07;;;5.40;88.90;;;;;;4952308;28;91110;-76
2020/12/14 06:38:44;;;;;;;103.07;58.80;;;5.40;88.90;;;;;;4943602;28;87455;-76
2020/12/14 06:41:18;;;;;;;101.60;56.33;;;5.40;89.10;;;;;;4944223;28;86316;-76
2020/12/14 06:43:46;;;;;;;104.70;58.07;;;5.30;89.10;;;;;;4942936;28;88422;-76
2020/12/14 06:46:13;;;;;;;94.57;56.33;;;5.30;89.20;;;;;;4960703;28;88034;-75
2020/12/14 06:48:42;;;;;;;98.47;58.40;;;5.30;89.30;;;;;;4941854;28;88563;-75
2020/12/14 06:51:18;;;;;;;96.27;56.47;;;5.30;89.30;;;;;;4942933;28;87078;-76
2020/12/14 06:53:48;;;;;;;97.17;56.27;;;5.20;89.20;;;;;;4942738;28;87695;-78
2020/12/14 06:56:40;;;;;;;104.77;60.70;;;5.30;89.50;;;;;;4943804;28;91118;-79
2020/12/14 06:59:29;;;;;;;102.20;59.88;;;5.30;88.90;;;;;;4944808;28;87034;-79
2020/12/14 07:01:59;;;;;;;102.03;58.70;;;5.30;89.10;;;;;;4944740;28;87139;-78
2020/12/14 07:04:28;;;;;;;102.20;58.47;;;5.30;88.90;;;;;;4943745;28;90967;-78
2020/12/14 07:07:14;;;;;;;108.10;59.10;;;5.30;88.50;;;;;;4944165;28;91367;-79
2020/12/14 07:09:41;;;;;;;111.87;62.37;;;5.40;88.60;;;;;;4916562;28;87119;-79
2020/12/14 07:12:09;;;;;;;110.00;61.50;;;5.40;88.50;;;;;;4943160;28;87916;-79
2020/12/14 07:14:51;;;;;;;117.23;63.90;;;5.40;88.50;;;;;;4964743;28;88472;-80
2020/12/14 07:17:25;;;;;;;122.63;69.43;;;5.40;88.10;;;;;;4952480;28;89437;-80
2020/12/14 07:19:56;;;;;;;121.27;67.17;;;5.50;88.30;;;;;;4945395;28;87150;-80
2020/12/14 07:22:34;;;;;;;132.10;73.00;;;5.50;87.70;;;;;;4945097;28;87658;-79
2020/12/14 07:27:28;;;;;;;129.90;72.03;;;5.50;87.90;;;;;;5030806;22;87302;-81
2020/12/14 07:30:08;;;;;;;123.77;71.30;;;5.50;88.20;;;;;;5028285;22;88707;-79
2020/12/14 07:32:34;;;;;;;128.93;70.27;;;5.40;88.90;;;;;;4982563;28;87614;-82
2020/12/14 07:35:01;;;;;;;122.57;70.13;;;5.30;89.40;;;;;;4984113;28;90266;-79
2020/12/14 07:37:27;;;;;;;115.90;66.13;;;5.30;89.40;;;;;;4984472;28;87510;-80
2020/12/14 07:39:53;;;;;;;120.27;69.73;;;5.30;89.40;;;;;;4976855;28;88104;-81
2020/12/14 07:42:26;;;;;;;116.77;69.30;;;5.40;89.00;;;;;;4978213;28;87747;-80
2020/12/14 07:47:52;;;;;;;118.27;64.97;;;5.70;87.60;;;;;;5052850;22;87608;-81
2020/12/14 07:50:22;;;;;;;114.77;70.03;;;5.80;86.90;;;;;;4970996;28;87482;-80
2020/12/14 07:52:50;;;;;;;126.77;71.07;;;5.90;86.60;;;;;;4939222;28;88008;-79
2020/12/14 07:55:17;;;;;;;129.93;75.23;;;5.90;86.20;;;;;;4942907;28;91020;-81
2020/12/14 07:57:49;;;;;;;131.70;73.23;;;5.90;86.50;;;;;;4945085;28;91223;-81
2020/12/14 08:00:25;;;;;;;119.73;68.90;;;5.90;86.50;;;;;;5032155;23;88658;-78
2020/12/14 08:03:00;;;;;;;130.03;75.20;;;5.80;86.60;;;;;;4928811;28;87960;-78
2020/12/14 08:05:26;;;;;;;140.93;77.17;;;5.80;87.00;;;;;;4931855;28;92208;-76
2020/12/14 08:07:53;;;;;;;126.80;74.33;;;5.80;87.30;;;;;;4932000;28;88447;-78
2020/12/14 08:10:21;;;;;;;125.77;74.47;;;5.80;87.10;;;;;;4931106;28;87347;-78
2020/12/14 08:12:48;;;;;;;128.97;74.27;;;5.90;87.00;;;;;;4937643;28;88307;-77
2020/12/14 08:15:19;;;;;;;125.50;71.83;;;6.00;86.90;;;;;;4935310;28;91061;-77
2020/12/14 08:17:46;;;;;;;134.83;76.33;;;6.00;86.60;;;;;;4932458;28;91856;-78
2020/12/14 08:20:30;;;;;;;125.17;72.90;;;6.10;86.30;;;;;;4940709;28;86992;-78
2020/12/14 08:22:57;;;;;;;121.57;68.83;;;6.20;86.00;;;;;;4939273;28;86234;-78
2020/12/14 08:25:28;;;;;;;130.20;70.83;;;6.40;85.10;;;;;;4932957;28;88485;-79
2020/12/14 08:27:54;;;;;;;127.15;72.68;;;6.40;84.30;;;;;;4932339;28;90958;-78
2020/12/14 08:30:21;;;;;;;128.83;76.07;;;6.40;84.30;;;;;;4929732;28;88296;-78
2020/12/14 08:33:13;;;;;;;124.67;71.20;;;6.40;84.40;;;;;;4942461;28;87908;-79
2020/12/14 08:35:40;;;;;;;130.60;73.30;;;6.30;84.80;;;;;;4920561;28;90975;-78
2020/12/14 08:38:12;;;;;;;126.03;69.63;;;6.20;85.40;;;;;;4929448;28;90095;-78
2020/12/14 08:40:39;;;;;;;118.57;68.10;;;6.20;85.30;;;;;;4933393;28;87795;-78
2020/12/14 08:43:13;;;;;;;123.27;68.93;;;6.10;86.30;;;;;;4933200;28;87426;-77
2020/12/14 08:46:04;;;;;;;117.13;65.13;;;6.10;86.30;;;;;;4933622;28;91498;-78
2020/12/14 08:48:51;;;;;;;107.40;61.90;;;6.10;86.40;;;;;;4940304;28;90906;-77
2020/12/14 08:51:20;;;;;;;109.23;63.00;;;6.10;86.30;;;;;;4934594;28;87499;-79
2020/12/14 08:53:47;;;;;;;106.50;61.87;;;6.10;86.60;;;;;;4923652;28;87707;-79
2020/12/14 08:56:16;;;;;;;106.37;63.67;;;6.20;86.10;;;;;;4938834;28;92211;-78
2020/12/14 08:58:51;;;;;;;113.63;61.83;;;6.20;85.70;;;;;;4934326;28;89331;-78
2020/12/14 09:01:19;;;;;;;102.90;59.93;;;6.30;85.40;;;;;;4908285;28;87023;-78
2020/12/14 09:03:56;;;;;;;94.87;56.93;;;6.20;85.30;;;;;;4908118;28;87781;-78
2020/12/14 09:06:27;;;;;;;113.00;63.63;;;6.20;85.30;;;;;;4931447;28;91081;-79
2020/12/14 09:09:08;;;;;;;111.90;62.67;;;6.30;85.40;;;;;;4942863;28;91453;-78
2020/12/14 09:11:56;;;;;;;96.47;57.03;;;6.30;85.40;;;;;;4926474;28;87094;-80
2020/12/14 09:14:24;;;;;;;103.20;60.07;;;6.30;84.90;;;;;;4931160;28;87609;-79
2020/12/14 09:16:52;;;;;;;99.63;56.70;;;6.20;85.30;;;;;;4934902;28;90114;-78
2020/12/14 09:19:23;;;;;;;99.97;56.43;;;6.20;85.50;;;;;;4947723;28;87435;-77
2020/12/14 09:21:49;;;;;;;98.33;57.93;;;6.20;85.40;;;;;;4937657;28;88031;-78
2020/12/14 09:24:19;;;;;;;90.40;54.83;;;6.30;85.30;;;;;;4935979;28;87770;-78
2020/12/14 09:26:47;;;;;;;91.77;51.53;;;6.30;85.00;;;;;;4928338;28;89092;-78
2020/12/14 09:29:13;;;;;;;92.47;54.63;;;6.50;84.50;;;;;;4928427;28;87271;-78
2020/12/14 09:31:50;;;;;;;90.43;54.93;;;6.40;84.30;;;;;;4927791;28;88247;-78
2020/12/14 09:34:16;;;;;;;94.53;56.20;;;6.50;84.30;;;;;;4944495;28;86968;-78
2020/12/14 09:36:42;;;;;;;94.17;55.80;;;6.70;83.70;;;;;;4938749;28;87416;-77
2020/12/14 09:39:08;;;;;;;93.20;54.73;;;6.80;83.30;;;;;;4940226;28;91363;-77
2020/12/14 09:41:34;;;;;;;92.20;51.97;;;6.90;82.50;;;;;;4915690;28;87368;-78
2020/12/14 09:44:00;;;;;;;77.00;46.63;;;7.10;81.90;;;;;;4940776;28;87878;-78
2020/12/14 09:46:27;;;;;;;77.10;46.93;;;7.10;81.80;;;;;;4925221;28;91959;-78
2020/12/14 09:48:55;;;;;;;82.57;49.63;;;7.10;81.80;;;;;;4945794;28;90376;-78
2020/12/14 09:51:21;;;;;;;83.63;49.20;;;7.10;81.70;;;;;;4936769;28;90164;-78
2020/12/14 09:53:47;;;;;;;78.77;46.97;;;7.20;81.70;;;;;;4938102;28;87888;-78
2020/12/14 09:56:13;;;;;;;82.97;49.10;;;7.20;81.50;;;;;;4938737;28;91046;-78
2020/12/14 09:58:39;;;;;;;79.70;48.17;;;7.30;81.40;;;;;;4937529;28;90890;-78
2020/12/14 10:01:06;;;;;;;83.23;49.53;;;7.30;81.40;;;;;;4937523;28;87020;-78
2020/12/14 10:03:33;;;;;;;67.83;43.30;;;7.40;81.00;;;;;;4938686;28;86898;-78
2020/12/14 10:05:59;;;;;;;83.63;46.77;;;7.40;81.20;;;;;;4938493;28;88201;-79
2020/12/14 10:08:26;;;;;;;71.87;44.07;;;7.40;81.10;;;;;;4939326;28;87473;-78
2020/12/14 10:10:55;;;;;;;82.22;47.50;;;7.50;81.20;;;;;;4929457;28;88121;-78
2020/12/14 10:13:24;;;;;;;70.17;43.70;;;7.30;82.00;;;;;;4938648;28;87258;-78
2020/12/14 10:15:51;;;;;;;72.53;42.43;;;7.30;82.50;;;;;;4919642;28;90365;-78
2020/12/14 10:18:18;;;;;;;75.23;44.20;;;7.40;82.50;;;;;;4939165;28;90392;-78
2020/12/14 10:20:44;;;;;;;74.20;44.37;;;7.50;82.20;;;;;;4921327;28;87544;-78
2020/12/14 10:23:11;;;;;;;68.77;41.13;;;7.60;82.00;;;;;;4936078;28;87645;-78
2020/12/14 10:25:38;;;;;;;66.37;41.40;;;7.60;81.60;;;;;;4937188;28;88757;-78
2020/12/14 10:28:05;;;;;;;60.83;37.45;;;7.80;81.20;;;;;;4945824;28;90737;-78
2020/12/14 10:30:31;;;;;;;67.20;39.23;;;7.90;80.80;;;;;;4928315;28;87618;-78
2020/12/14 10:32:57;;;;;;;62.97;37.92;;;8.10;79.90;;;;;;4927624;28;87650;-79
2020/12/14 10:35:24;;;;;;;58.77;36.83;;;8.20;78.60;;;;;;4941383;28;91805;-78
2020/12/14 10:37:51;;;;;;;54.77;35.73;;;8.10;78.30;;;;;;4941910;28;92037;-79
2020/12/14 10:40:17;;;;;;;61.53;35.88;;;8.00;78.80;;;;;;4894484;28;87137;-78
2020/12/14 10:42:43;;;;;;;56.23;36.93;;;8.00;79.30;;;;;;4930646;28;87145;-79
2020/12/14 10:45:09;;;;;;;58.60;36.63;;;8.00;79.10;;;;;;4929052;28;91618;-78
2020/12/14 10:47:36;;;;;;;55.78;35.70;;;8.10;79.20;;;;;;4929638;28;91283;-79
2020/12/14 10:50:03;;;;;;;54.53;34.58;;;8.20;79.10;;;;;;4912775;28;87493;-78
2020/12/14 10:52:28;;;;;;;54.63;36.77;;;8.20;78.10;;;;;;4932980;28;86666;-79
2020/12/14 10:54:54;;;;;;;62.15;34.58;;;8.30;78.10;;;;;;4926855;28;91837;-79
2020/12/14 10:57:20;;;;;;;56.42;34.53;;;8.50;76.70;;;;;;4909208;28;90161;-78
2020/12/14 10:59:46;;;;;;;53.47;34.67;;;8.60;76.40;;;;;;4935562;28;88441;-79
2020/12/14 11:02:12;;;;;;;50.17;31.77;;;8.60;76.70;;;;;;4940766;28;88118;-79
2020/12/14 11:04:38;;;;;;;48.23;31.63;;;8.70;76.40;;;;;;4949681;28;91052;-79
2020/12/14 11:07:08;;;;;;;49.03;32.22;;;8.70;76.50;;;;;;4953082;28;91732;-78
2020/12/14 11:09:37;;;;;;;52.33;31.35;;;8.70;76.70;;;;;;4936426;28;87004;-78
2020/12/14 11:12:06;;;;;;;55.20;33.45;;;8.70;76.90;;;;;;4928863;28;87564;-83
2020/12/14 11:14:33;;;;;;;56.20;35.30;;;8.70;77.40;;;;;;4943033;28;91897;-79
2020/12/14 11:17:01;;;;;;;50.78;33.33;;;8.80;76.90;;;;;;4942051;28;91305;-77
2020/12/14 11:19:27;;;;;;;57.05;34.25;;;8.80;76.90;;;;;;4940180;28;87126;-78
2020/12/14 11:21:54;;;;;;;49.67;32.45;;;8.80;76.70;;;;;;4936520;28;87141;-78
2020/12/14 11:24:24;;;;;;;55.20;33.63;;;8.80;77.20;;;;;;4946052;28;88806;-85
2020/12/14 11:26:50;;;;;;;55.88;35.10;;;8.80;77.20;;;;;;4955335;28;90601;-79
2020/12/14 11:29:16;;;;;;;57.45;34.83;;;8.90;76.90;;;;;;4912774;28;87048;-78
2020/12/14 11:31:43;;;;;;;56.28;35.15;;;8.80;77.10;;;;;;4923853;28;87587;-78
2020/12/14 11:34:09;;;;;;;51.17;32.95;;;8.80;77.50;;;;;;4937234;28;91233;-78
2020/12/14 11:36:35;;;;;;;56.22;35.40;;;8.80;78.40;;;;;;4936233;28;89691;-78
2020/12/14 11:39:01;;;;;;;51.55;33.47;;;8.90;77.60;;;;;;4937682;28;87310;-78
2020/12/14 11:41:28;;;;;;;55.47;31.52;;;8.90;77.50;;;;;;4954474;28;88498;-78
2020/12/14 11:43:54;;;;;;;55.45;32.05;;;9.00;77.20;;;;;;4939298;28;91496;-78
2020/12/14 11:46:20;;;;;;;43.50;26.30;;;9.00;77.50;;;;;;4939886;28;88023;-78
2020/12/14 11:48:46;;;;;;;35.17;22.98;;;9.00;76.50;;;;;;4936077;28;88501;-78
2020/12/14 11:51:12;;;;;;;32.42;20.85;;;9.00;76.00;;;;;;4941084;28;88032;-78
2020/12/14 11:53:38;;;;;;;29.23;19.05;;;9.10;75.30;;;;;;4939339;28;87697;-78
2020/12/14 11:56:04;;;;;;;29.05;17.52;;;9.20;74.90;;;;;;4937445;28;87117;-79
2020/12/14 11:58:30;;;;;;;23.67;12.75;;;9.20;74.10;;;;;;4937858;28;87408;-78
2020/12/14 12:00:56;;;;;;;23.30;11.57;;;9.20;71.90;;;;;;4905310;28;88429;-79
2020/12/14 12:03:22;;;;;;;10.05;5.60;;;9.10;71.80;;;;;;4922280;28;91581;-81
2020/12/14 12:05:48;;;;;;;10.40;6.93;;;9.10;69.50;;;;;;4923611;28;89510;-78
2020/12/14 12:08:14;;;;;;;7.67;4.37;;;9.10;69.90;;;;;;4934690;28;87382;-79
2020/12/14 12:10:40;;;;;;;5.55;4.38;;;9.10;69.60;;;;;;4953394;28;87295;-78
2020/12/14 12:13:06;;;;;;;8.77;4.78;;;9.10;68.90;;;;;;4934161;28;90006;-78
2020/12/14 12:15:33;;;;;;;5.50;4.60;;;9.10;68.70;;;;;;4892738;28;91815;-78
2020/12/14 12:17:59;;;;;;;6.73;5.10;;;9.10;68.70;;;;;;4945381;28;87066;-77
2020/12/14 12:20:25;;;;;;;9.43;4.82;;;9.10;68.90;;;;;;4950394;28;88266;-81
2020/12/14 12:22:58;;;;;;;6.68;4.05;;;9.10;69.30;;;;;;4969370;28;89668;-81
2020/12/14 12:25:28;;;;;;;5.53;4.20;;;9.10;68.90;;;;;;4952460;28;87519;-82
2020/12/14 12:27:54;;;;;;;5.72;4.53;;;9.00;69.00;;;;;;4941080;28;87257;-81
2020/12/14 12:30:20;;;;;;;5.17;4.53;;;9.00;69.50;;;;;;4923698;28;86936;-79
2020/12/14 12:32:46;;;;;;;11.52;4.53;;;9.00;69.40;;;;;;4942259;28;89254;-79
2020/12/14 12:35:13;;;;;;;6.13;4.68;;;9.00;69.80;;;;;;4943497;28;89205;-78
2020/12/14 12:37:39;;;;;;;9.95;4.85;;;9.10;69.40;;;;;;4943054;28;88255;-78
2020/12/14 12:40:10;;;;;;;4.78;3.72;;;9.00;69.60;;;;;;4939674;28;87139;-79
2020/12/14 12:42:35;;;;;;;5.40;4.30;;;9.00;69.50;;;;;;4928398;28;88119;-78
2020/12/14 12:45:03;;;;;;;4.85;3.97;;;9.10;69.80;;;;;;4931653;28;88309;-80
2020/12/14 12:47:29;;;;;;;6.80;3.97;;;9.10;69.40;;;;;;4933888;28;87010;-79